Terminal Aerodrome Forecast
Issued by NWS

Home | Current Version | Previous Version | Text Only | Print | Product List | Glossary On
Versions: 1 2 3 4 5 6 7 8 9 10 11 12 13 14 15 16 17 18 19 20 21 22 23 24
000
FTUS45 KGJT 191734
TAFEGE
TAF
KEGE 191734Z 1918/2018 VRB03KT P6SM FEW100
     FM192000 24009KT P6SM SCT110 SCT200
     FM200200 10005KT P6SM FEW110 SCT250
     FM200800 VRB03KT P6SM FEW110=

USA.gov is the U.S. government's official web portal to all federal, state and local government web resources and services.